createdAt,value
2018-12-23T00:02:07.210Z,101664.52
2018-12-23T00:04:38.002Z,101655.96
2018-12-23T00:07:07.775Z,101658.53
2018-12-23T00:09:41.878Z,101662.62
2018-12-23T00:12:16.334Z,101663.41
2018-12-23T00:14:47.667Z,101655.43
2018-12-23T00:17:24.506Z,101653.45
2018-12-23T00:19:57.982Z,101667.45
2018-12-23T00:22:30.890Z,101668.42
2018-12-23T00:25:03.219Z,101656.33
2018-12-23T00:27:33.470Z,101653.67
2018-12-23T00:30:04.120Z,101644.05
2018-12-23T00:32:33.954Z,101658.88
2018-12-23T00:35:04.935Z,101665.17
2018-12-23T00:37:35.122Z,101668.64
2018-12-23T00:40:04.874Z,101667.26
2018-12-23T00:42:34.599Z,101669.66
2018-12-23T00:45:04.051Z,101665.88
2018-12-23T00:47:36.076Z,101669.87
2018-12-23T00:50:08.548Z,101658.54
2018-12-23T00:52:38.384Z,101660.13
2018-12-23T00:55:09.370Z,101659.05
2018-12-23T00:57:42.129Z,101669.70
2018-12-23T01:00:12.435Z,101663.94
2018-12-23T01:02:41.670Z,101667.45
2018-12-23T01:05:11.039Z,101656.47
2018-12-23T01:07:41.641Z,101659.34
2018-12-23T01:10:11.942Z,101674.36
2018-12-23T01:12:42.584Z,101676.34
2018-12-23T01:15:12.036Z,101679.91
2018-12-23T01:17:42.723Z,101687.28
2018-12-23T01:20:12.192Z,101694.72
2018-12-23T01:22:41.601Z,101695.48
2018-12-23T01:25:13.565Z,101702.05
2018-12-23T01:27:43.640Z,101690.09
2018-12-23T01:30:14.872Z,101679.08
2018-12-23T01:32:46.079Z,101676.55
2018-12-23T01:35:16.718Z,101683.73
2018-12-23T01:37:47.997Z,101683.98
2018-12-23T01:40:20.336Z,101678.75
2018-12-23T01:42:49.535Z,101690.34
2018-12-23T01:45:19.247Z,101694.75
2018-12-23T01:47:48.532Z,101695.20
2018-12-23T01:50:18.758Z,101688.80
2018-12-23T01:52:48.618Z,101698.13
2018-12-23T01:55:18.538Z,101698.66
2018-12-23T01:57:49.474Z,101700.50
2018-12-23T02:00:18.831Z,101704.31
2018-12-23T02:02:48.689Z,101715.30
2018-12-23T02:05:20.305Z,101707.93
2018-12-23T02:07:50.943Z,101717.64
2018-12-23T02:10:23.440Z,101721.70
2018-12-23T02:12:54.462Z,101715.24
2018-12-23T02:15:23.709Z,101715.66
2018-12-23T02:17:54.127Z,101711.70
2018-12-23T02:20:24.684Z,101714.91
2018-12-23T02:22:59.801Z,101713.47
2018-12-23T02:25:29.126Z,101714.55
2018-12-23T02:28:01.499Z,101707.98
2018-12-23T02:30:32.527Z,101715.41
2018-12-23T02:33:01.893Z,101715.30
2018-12-23T02:35:31.801Z,101716.20
2018-12-23T02:38:04.084Z,101719.16
2018-12-23T02:40:33.279Z,101711.16
2018-12-23T02:43:02.556Z,101715.06
2018-12-23T02:45:37.452Z,101719.73
2018-12-23T02:48:09.928Z,101709.98
2018-12-23T02:50:44.495Z,101714.78
2018-12-23T02:53:18.704Z,101716.11
2018-12-23T02:55:54.155Z,101717.42
2018-12-23T02:58:25.982Z,101715.08
2018-12-23T03:00:58.764Z,101697.98
2018-12-23T03:03:29.211Z,101723.09
2018-12-23T03:06:05.709Z,101716.70
2018-12-23T03:08:33.953Z,101720.11
2018-12-23T03:11:03.779Z,101707.09
2018-12-23T03:13:34.015Z,101701.03
2018-12-23T03:16:04.845Z,101707.34
2018-12-23T03:18:35.996Z,101705.51
2018-12-23T03:21:06.048Z,101710.38
2018-12-23T03:23:35.284Z,101709.62
2018-12-23T03:26:05.283Z,101700.24
2018-12-23T03:28:35.083Z,101691.92
2018-12-23T03:31:05.123Z,101690.39
2018-12-23T03:33:34.343Z,101684.36
2018-12-23T03:36:04.591Z,101696.56
2018-12-23T03:38:34.403Z,101693.16
2018-12-23T03:41:04.299Z,101692.45
2018-12-23T03:43:34.621Z,101690.36
2018-12-23T03:46:03.950Z,101692.09
2018-12-23T03:48:34.807Z,101694.41
2018-12-23T03:51:05.539Z,101699.81
2018-12-23T03:53:34.761Z,101706.11
2018-12-23T03:56:05.602Z,101706.64
2018-12-23T03:58:38.819Z,101703.39
2018-12-23T04:01:11.131Z,101695.02
2018-12-23T04:03:41.822Z,101688.94
2018-12-23T04:06:24.443Z,101696.29
2018-12-23T04:08:54.580Z,101683.97
2018-12-23T04:11:25.967Z,101701.07
2018-12-23T04:13:59.226Z,101697.68
2018-12-23T04:16:31.900Z,101696.80
2018-12-23T04:19:01.430Z,101690.23
2018-12-23T04:21:30.639Z,101694.38
2018-12-23T04:24:00.902Z,101697.95
2018-12-23T04:26:30.868Z,101699.73
2018-12-23T04:29:03.093Z,101697.45
2018-12-23T04:31:32.345Z,101694.78
2018-12-23T04:34:02.410Z,101684.41
2018-12-23T04:41:57.476Z,101688.02
2018-12-23T04:44:47.963Z,101689.07
2018-12-23T04:47:20.020Z,101684.31
2018-12-23T04:49:59.669Z,101680.16
2018-12-23T04:52:33.279Z,101681.34
2018-12-23T04:55:10.823Z,101673.52
2018-12-23T04:57:45.063Z,101670.84
2018-12-23T05:00:19.530Z,101666.29
2018-12-23T05:02:52.274Z,101666.64
2018-12-23T05:05:25.798Z,101664.23
2018-12-23T05:07:56.558Z,101659.89
2018-12-23T05:10:33.074Z,101663.11
2018-12-23T05:13:10.471Z,101665.36
2018-12-23T05:15:43.787Z,101664.38
2018-12-23T05:18:21.388Z,101657.56
2018-12-23T05:20:54.885Z,101661.05
2018-12-23T05:23:30.722Z,101665.84
2018-12-23T05:26:04.097Z,101652.32
2018-12-23T05:28:37.073Z,101656.11
2018-12-23T05:31:10.193Z,101654.96
2018-12-23T05:33:45.622Z,101650.27
2018-12-23T05:36:24.582Z,101621.53
2018-12-23T05:38:58.889Z,101647.09
2018-12-23T05:41:33.342Z,101659.00
2018-12-23T05:44:06.505Z,101651.25
2018-12-23T05:46:44.739Z,101654.53
2018-12-23T05:49:21.032Z,101656.33
2018-12-23T05:51:53.896Z,101653.58
2018-12-23T05:54:25.443Z,101654.53
2018-12-23T05:56:57.611Z,101657.36
2018-12-23T05:59:31.728Z,101659.13
2018-12-23T06:02:05.209Z,101663.07
2018-12-23T06:04:58.093Z,101660.56
2018-12-23T06:07:35.665Z,101664.98
2018-12-23T06:10:19.082Z,101653.22
2018-12-23T06:12:57.939Z,101650.98
2018-12-23T06:15:31.207Z,101649.37
2018-12-23T06:18:10.455Z,101643.80
2018-12-23T06:20:42.813Z,101652.27
2018-12-23T06:23:16.227Z,101651.70
2018-12-23T06:25:48.886Z,101653.87
2018-12-23T06:28:19.934Z,101651.02
2018-12-23T06:30:57.019Z,101653.01
2018-12-23T06:33:27.759Z,101653.59
2018-12-23T06:36:00.266Z,101657.55
2018-12-23T06:38:31.683Z,101658.62
2018-12-23T06:41:04.491Z,101662.39
2018-12-23T06:43:37.784Z,101666.06
2018-12-23T06:46:17.073Z,101659.61
2018-12-23T06:48:49.395Z,101653.36
2018-12-23T06:51:20.746Z,101652.36
2018-12-23T06:53:53.514Z,101656.22
2018-12-23T06:56:27.335Z,101663.06
2018-12-23T06:59:08.569Z,101650.73
2018-12-23T07:01:45.723Z,101661.52
2018-12-23T07:04:20.657Z,101651.72
2018-12-23T07:06:54.730Z,101652.72
2018-12-23T07:09:30.918Z,101654.08
2018-12-23T07:12:04.655Z,101651.52
2018-12-23T07:14:38.272Z,101650.20
2018-12-23T07:17:20.111Z,101645.38
2018-12-23T07:19:51.741Z,101648.80
2018-12-23T07:22:31.068Z,101648.83
2018-12-23T07:25:02.826Z,101638.37
2018-12-23T07:27:36.076Z,101641.59
2018-12-23T07:30:16.951Z,101646.02
2018-12-23T07:32:51.501Z,101646.41
2018-12-23T07:35:24.648Z,101639.55
2018-12-23T07:38:12.250Z,101640.55
2018-12-23T07:40:44.802Z,101634.30
2018-12-23T07:43:28.852Z,101634.80
2018-12-23T07:46:02.494Z,101641.95
2018-12-23T07:48:38.924Z,101642.74
2018-12-23T07:51:14.706Z,101639.55
2018-12-23T07:53:51.371Z,101636.95
2018-12-23T07:56:23.644Z,101646.98
2018-12-23T07:59:06.238Z,101642.16
2018-12-23T08:01:40.576Z,101643.66
2018-12-23T08:04:23.309Z,101636.52
2018-12-23T08:07:07.793Z,101643.81
2018-12-23T08:09:45.575Z,101641.70
2018-12-23T08:12:16.761Z,101640.83
2018-12-23T08:14:50.486Z,101634.97
2018-12-23T08:17:21.862Z,101642.27
2018-12-23T08:19:56.626Z,101631.52
2018-12-23T08:22:30.248Z,101635.28
2018-12-23T08:25:04.019Z,101634.45
2018-12-23T08:27:39.378Z,101625.66
2018-12-23T08:30:16.073Z,101632.45
2018-12-23T08:32:51.452Z,101625.55
2018-12-23T08:35:23.053Z,101620.23
2018-12-23T08:38:02.012Z,101622.75
2018-12-23T08:40:37.103Z,101614.69
2018-12-23T08:43:10.831Z,101605.95
2018-12-23T08:45:46.842Z,101616.34
2018-12-23T08:48:23.208Z,101613.86
2018-12-23T08:50:56.617Z,101616.31
2018-12-23T08:53:32.525Z,101613.34
2018-12-23T08:56:04.562Z,101616.40
2018-12-23T08:58:36.042Z,101615.86
2018-12-23T09:01:07.499Z,101607.91
2018-12-23T09:03:41.607Z,101604.33
2018-12-23T09:06:17.486Z,101602.47
2018-12-23T09:08:51.751Z,101604.52
2018-12-23T09:11:27.797Z,101605.61
2018-12-23T09:14:04.564Z,101605.40
2018-12-23T09:16:42.925Z,101608.27
2018-12-23T09:19:18.174Z,101600.98
2018-12-23T09:21:51.337Z,101601.43
2018-12-23T09:24:25.889Z,101599.35
2018-12-23T09:27:03.900Z,101600.31
2018-12-23T09:29:36.568Z,101600.83
2018-12-23T09:32:07.561Z,101603.25
2018-12-23T09:34:39.289Z,101590.59
2018-12-23T09:37:16.006Z,101583.81
2018-12-23T09:39:53.667Z,101586.66
2018-12-23T09:42:29.152Z,101587.38
2018-12-23T09:45:04.005Z,101579.88
2018-12-23T09:47:37.171Z,101579.55
2018-12-23T09:50:09.580Z,101586.39
2018-12-23T09:52:41.621Z,101579.33
2018-12-23T09:55:12.324Z,101577.28
2018-12-23T09:57:46.384Z,101573.94
2018-12-23T10:00:21.028Z,101578.23
2018-12-23T10:02:53.319Z,101570.43
2018-12-23T10:05:29.036Z,101570.33
2018-12-23T10:08:09.921Z,101563.92
2018-12-23T10:10:38.445Z,101566.31
2018-12-23T10:13:39.245Z,101563.02
2018-12-23T10:16:12.634Z,101561.80
2018-12-23T10:18:43.675Z,101554.88
2018-12-23T10:21:21.389Z,101555.56
2018-12-23T10:23:54.862Z,101542.16
2018-12-23T10:26:28.092Z,101541.93
2018-12-23T10:29:01.686Z,101538.26
2018-12-23T10:31:36.108Z,101534.77
2018-12-23T10:34:09.286Z,101529.89
2018-12-23T10:36:43.885Z,101523.39
2018-12-23T10:39:23.517Z,101515.91
2018-12-23T10:41:55.224Z,101514.49
2018-12-23T10:44:28.220Z,101512.83
2018-12-23T10:46:59.382Z,101504.26
2018-12-23T10:49:35.018Z,101496.84
2018-12-23T10:52:06.655Z,101494.43
2018-12-23T10:54:40.489Z,101486.27
2018-12-23T10:57:14.140Z,101484.59
2018-12-23T10:59:49.515Z,101479.30
2018-12-23T11:02:25.618Z,101476.34
2018-12-23T11:04:59.354Z,101469.50
2018-12-23T11:07:30.512Z,101465.49
2018-12-23T11:10:07.119Z,101459.48
2018-12-23T11:12:40.310Z,101454.45
2018-12-23T11:15:13.163Z,101456.47
2018-12-23T11:18:00.401Z,101442.34
2018-12-23T11:20:34.351Z,101433.97
2018-12-23T11:23:12.351Z,101432.89
2018-12-23T11:25:45.096Z,101426.52
2018-12-23T11:28:18.437Z,101418.73
2018-12-23T11:30:50.773Z,101419.99
2018-12-23T11:33:22.338Z,101417.39
2018-12-23T11:35:59.306Z,101412.52
2018-12-23T11:38:37.226Z,101412.70
2018-12-23T11:41:15.014Z,101403.58
2018-12-23T11:43:47.667Z,101404.73
2018-12-23T11:46:24.696Z,101399.25
2018-12-23T11:48:59.992Z,101399.41
2018-12-23T11:51:40.504Z,101385.94
2018-12-23T11:54:27.269Z,101382.67
2018-12-23T11:56:59.193Z,101370.94
2018-12-23T11:59:49.574Z,101363.45
2018-12-23T12:02:22.336Z,101362.48
2018-12-23T12:04:56.425Z,101360.33
2018-12-23T12:07:29.675Z,101358.43
2018-12-23T12:10:03.273Z,101360.66
2018-12-23T12:12:42.997Z,101360.79
2018-12-23T12:15:18.473Z,101349.59
2018-12-23T12:17:54.504Z,101350.91
2018-12-23T12:20:28.074Z,101342.62
2018-12-23T12:23:04.301Z,101344.91
2018-12-23T12:25:40.959Z,101328.27
2018-12-23T12:28:14.972Z,101330.05
2018-12-23T12:30:51.237Z,101326.41
2018-12-23T12:33:23.244Z,101315.80
2018-12-23T12:35:58.102Z,101313.50
2018-12-23T12:38:33.280Z,101308.11
2018-12-23T12:41:05.952Z,101302.07
2018-12-23T12:43:43.544Z,101298.73
2018-12-23T12:46:17.893Z,101293.41
2018-12-23T12:48:51.365Z,101290.67
2018-12-23T12:51:27.346Z,101291.48
2018-12-23T12:54:03.708Z,101286.28
2018-12-23T12:56:37.020Z,101275.22
2018-12-23T12:59:11.910Z,101256.23
2018-12-23T13:01:48.636Z,101261.42
2018-12-23T13:04:22.840Z,101257.55
2018-12-23T13:06:57.530Z,101250.37
2018-12-23T13:09:29.800Z,101238.33
2018-12-23T13:12:01.780Z,101232.63
2018-12-23T13:14:35.154Z,101225.43
2018-12-23T13:17:08.652Z,101222.86
2018-12-23T13:19:40.325Z,101216.47
2018-12-23T13:22:14.541Z,101209.16
2018-12-23T13:24:59.937Z,101206.48
2018-12-23T13:27:36.461Z,101194.27
2018-12-23T13:30:10.558Z,101193.69
2018-12-23T13:32:41.903Z,101186.39
2018-12-23T13:35:15.633Z,101177.95
2018-12-23T13:37:48.464Z,101174.25
2018-12-23T13:40:44.694Z,101170.10
2018-12-23T13:43:48.712Z,101175.09
2018-12-23T13:46:55.594Z,101164.77
2018-12-23T13:50:07.047Z,101168.77
2018-12-23T13:53:18.688Z,101156.52
2018-12-23T13:56:41.401Z,101154.88
2018-12-23T13:59:41.687Z,101156.06
2018-12-23T14:02:31.305Z,101152.12
2018-12-23T14:05:28.424Z,101145.30
2018-12-23T14:08:27.070Z,101136.00
2018-12-23T14:11:23.844Z,101140.01
2018-12-23T14:13:55.067Z,101132.52
2018-12-23T14:16:31.685Z,101105.99
2018-12-23T14:19:07.933Z,101102.54
2018-12-23T14:21:44.201Z,101102.73
2018-12-23T14:24:36.645Z,101099.02
2018-12-23T14:27:13.975Z,101094.71
2018-12-23T14:29:57.437Z,101094.44
2018-12-23T14:32:35.324Z,101081.42
2018-12-23T14:35:15.335Z,101077.64
2018-12-23T14:37:56.095Z,101062.91
2018-12-23T14:40:46.308Z,101055.03
2018-12-23T14:43:18.405Z,101066.80
2018-12-23T14:45:56.108Z,101060.23
2018-12-23T14:48:31.900Z,101045.38
2018-12-23T14:51:04.491Z,101035.67
2018-12-23T14:53:36.560Z,101020.14
2018-12-23T14:56:10.489Z,101015.91
2018-12-23T14:58:47.416Z,101018.39
2018-12-23T15:01:20.324Z,101015.73
2018-12-23T15:03:56.229Z,101008.77
2018-12-23T15:06:33.265Z,101008.86
2018-12-23T15:09:09.800Z,101000.36
2018-12-23T15:11:45.451Z,100998.99
2018-12-23T15:14:18.674Z,100990.52
2018-12-23T15:16:54.700Z,100981.31
2018-12-23T15:19:27.295Z,100981.59
2018-12-23T15:21:58.898Z,100984.52
2018-12-23T15:24:37.490Z,100985.06
2018-12-23T15:27:10.358Z,100977.86
2018-12-23T15:29:45.319Z,100962.30
2018-12-23T15:32:16.058Z,100954.00
2018-12-23T15:34:49.692Z,100943.16
2018-12-23T15:37:23.983Z,100943.51
2018-12-23T15:39:59.623Z,100940.22
2018-12-23T15:42:51.880Z,100942.94
2018-12-23T15:45:34.376Z,100942.19
2018-12-23T15:48:08.776Z,100938.60
2018-12-23T15:50:41.129Z,100943.65
2018-12-23T15:53:14.066Z,100938.02
2018-12-23T15:55:46.443Z,100944.35
2018-12-23T15:58:19.760Z,100941.94
2018-12-23T16:00:52.439Z,100936.06
2018-12-23T16:03:24.017Z,100925.79
2018-12-23T16:05:58.914Z,100919.53
2018-12-23T16:08:34.046Z,100923.81
2018-12-23T16:11:05.449Z,100908.09
2018-12-23T16:13:36.242Z,100895.55
2018-12-23T16:16:07.010Z,100886.58
2018-12-23T16:18:39.658Z,100873.18
2018-12-23T16:21:13.833Z,100867.73
2018-12-23T16:24:06.689Z,100873.61
2018-12-23T16:26:48.314Z,100862.52
2018-12-23T16:29:23.722Z,100865.17
2018-12-23T16:32:00.368Z,100861.95
2018-12-23T16:37:34.814Z,100861.05
2018-12-23T16:40:11.315Z,100864.71
2018-12-23T16:42:43.057Z,100865.72
2018-12-23T16:45:15.860Z,100857.37
2018-12-23T16:47:52.430Z,100849.66
2018-12-23T16:50:23.723Z,100841.23
2018-12-23T16:53:01.704Z,100832.70
2018-12-23T16:55:37.746Z,100837.77
2018-12-23T16:58:10.978Z,100828.58
2018-12-23T17:00:45.890Z,100828.95
2018-12-23T17:03:31.747Z,100821.34
2018-12-23T17:06:06.443Z,100821.48
2018-12-23T17:08:48.026Z,100816.97
2018-12-23T17:11:23.339Z,100821.39
2018-12-23T17:14:00.156Z,100820.58
2018-12-23T17:16:36.411Z,100821.11
2018-12-23T17:19:18.412Z,100824.32
2018-12-23T17:21:58.346Z,100815.98
2018-12-23T17:24:33.194Z,100806.45
2018-12-23T17:27:06.445Z,100799.77
2018-12-23T17:29:47.149Z,100795.52
2018-12-23T17:32:25.294Z,100791.28
2018-12-23T17:34:57.161Z,100800.89
2018-12-23T17:37:31.643Z,100795.81
2018-12-23T17:40:16.413Z,100798.34
2018-12-23T17:42:49.107Z,100790.55
2018-12-23T17:45:27.396Z,100784.53
2018-12-23T17:48:02.075Z,100771.63
2018-12-23T17:50:35.939Z,100781.98
2018-12-23T17:53:33.261Z,100786.73
2018-12-23T17:56:50.078Z,100783.66
2018-12-23T17:59:25.921Z,100779.14
2018-12-23T18:02:02.081Z,100780.00
2018-12-23T18:04:34.882Z,100780.49
2018-12-23T18:07:17.200Z,100783.66
2018-12-23T18:09:51.379Z,100777.31
2018-12-23T18:12:24.091Z,100767.93
2018-12-23T18:14:55.880Z,100769.30
2018-12-23T18:17:28.106Z,100774.77
2018-12-23T18:20:03.481Z,100764.66
2018-12-23T18:22:41.569Z,100771.16
2018-12-23T18:25:22.356Z,100768.47
2018-12-23T18:27:55.506Z,100770.09
2018-12-23T18:30:29.855Z,100763.69
2018-12-23T18:33:05.843Z,100763.86
2018-12-23T18:35:37.491Z,100767.89
2018-12-23T18:38:14.572Z,100763.86
2018-12-23T18:40:50.104Z,100771.38
2018-12-23T18:43:22.504Z,100766.48
2018-12-23T18:46:14.773Z,100762.61
2018-12-23T18:48:55.399Z,100758.91
2018-12-23T18:51:37.464Z,100743.03
2018-12-23T18:54:12.353Z,100755.87
2018-12-23T18:56:47.237Z,100752.30
2018-12-23T18:59:20.453Z,100754.63
2018-12-23T19:02:05.955Z,100755.30
2018-12-23T19:04:41.195Z,100742.45
2018-12-23T19:07:17.795Z,100745.58
2018-12-23T19:10:41.734Z,100750.01
2018-12-23T19:13:58.478Z,100752.25
2018-12-23T19:17:09.359Z,100750.27
2018-12-23T19:20:05.350Z,100740.17
2018-12-23T19:23:44.123Z,100746.25
2018-12-23T19:26:47.287Z,100746.61
2018-12-23T19:30:04.714Z,100751.95
2018-12-23T19:33:08.559Z,100746.07
2018-12-23T19:36:19.093Z,100740.99
2018-12-23T19:39:24.749Z,100738.64
2018-12-23T19:42:44.863Z,100737.05
2018-12-23T19:46:03.518Z,100738.61
2018-12-23T19:49:11.834Z,100742.05
2018-12-23T19:52:35.813Z,100739.52
2018-12-23T19:55:56.000Z,100739.98
2018-12-23T19:59:44.485Z,100738.55
2018-12-23T20:02:44.071Z,100738.97
2018-12-23T20:05:59.699Z,100742.44
2018-12-23T20:09:30.380Z,100734.12
2018-12-23T20:12:52.159Z,100726.96
2018-12-23T20:15:57.977Z,100723.19
2018-12-23T20:19:26.290Z,100722.81
2018-12-23T20:22:26.553Z,100723.02
2018-12-23T20:25:19.096Z,100735.72
2018-12-23T20:28:28.922Z,100735.69
2018-12-23T20:31:35.327Z,100732.27
2018-12-23T20:35:08.933Z,100734.09
2018-12-23T20:38:16.386Z,100732.09
2018-12-23T20:41:33.952Z,100725.83
2018-12-23T20:44:32.730Z,100738.61
2018-12-23T20:47:38.185Z,100734.51
2018-12-23T20:50:52.099Z,100726.34
2018-12-23T20:54:20.976Z,100736.53
2018-12-23T20:57:36.433Z,100739.88
2018-12-23T21:01:06.949Z,100736.53
2018-12-23T21:04:20.998Z,100742.78
2018-12-23T21:07:47.750Z,100751.17
2018-12-23T21:11:16.001Z,100753.42
2018-12-23T21:14:46.267Z,100760.67
2018-12-23T21:18:08.154Z,100756.98
2018-12-23T21:21:18.016Z,100766.70
2018-12-23T21:24:44.270Z,100766.86
2018-12-23T21:27:53.002Z,100786.36
2018-12-23T21:31:02.342Z,100781.78
2018-12-23T21:34:16.266Z,100789.90
2018-12-23T21:37:33.927Z,100789.53
2018-12-23T21:40:58.645Z,100802.84
2018-12-23T21:44:07.537Z,100803.08
2018-12-23T21:47:35.079Z,100808.05
2018-12-23T21:50:37.205Z,100818.45
2018-12-23T21:54:04.973Z,100809.81
2018-12-23T21:57:20.265Z,100823.03
2018-12-23T22:00:27.251Z,100829.13
2018-12-23T22:03:58.202Z,100848.05
2018-12-23T22:07:23.391Z,100866.86
2018-12-23T22:10:21.508Z,100900.05
2018-12-23T22:13:25.946Z,100929.44
2018-12-23T22:15:59.616Z,100942.69
2018-12-23T22:18:44.443Z,100964.93
2018-12-23T22:21:23.214Z,100974.67
2018-12-23T22:23:59.687Z,100980.28
2018-12-23T22:26:38.313Z,100978.00
2018-12-23T22:29:13.447Z,101000.46
2018-12-23T22:31:45.571Z,101012.42
2018-12-23T22:34:24.598Z,101007.23
2018-12-23T22:37:00.145Z,101002.23
2018-12-23T22:39:38.977Z,101017.88
2018-12-23T22:42:11.554Z,101017.13
2018-12-23T22:44:47.359Z,101031.97
2018-12-23T22:47:18.607Z,101031.20
2018-12-23T22:49:56.478Z,101034.03
2018-12-23T22:52:30.461Z,101054.02
2018-12-23T22:55:26.347Z,101071.82
2018-12-23T22:58:01.963Z,101084.75
2018-12-23T23:00:35.110Z,101081.06
2018-12-23T23:03:09.502Z,101065.09
2018-12-23T23:05:54.118Z,101081.06
2018-12-23T23:08:25.926Z,101096.09
2018-12-23T23:10:57.740Z,101106.62
2018-12-23T23:13:36.010Z,101111.77
2018-12-23T23:16:17.766Z,101126.62
2018-12-23T23:18:54.339Z,101139.66
2018-12-23T23:21:35.707Z,101128.56
2018-12-23T23:24:09.750Z,101148.70
2018-12-23T23:26:42.557Z,101176.56
2018-12-23T23:29:18.683Z,101155.42
2018-12-23T23:31:53.962Z,101172.41
2018-12-23T23:34:31.950Z,101174.69
2018-12-23T23:37:05.716Z,101185.98
2018-12-23T23:39:37.416Z,101193.20
2018-12-23T23:42:13.065Z,101195.33
2018-12-23T23:44:47.550Z,101204.61
2018-12-23T23:47:21.888Z,101214.02
2018-12-23T23:50:03.277Z,101211.00
2018-12-23T23:52:37.083Z,101228.66
2018-12-23T23:55:12.190Z,101211.30
2018-12-23T23:57:44.887Z,101217.50
